Аэропорт: Кневичи. Владивосток

ICAO: UHWW

METAR:
2019-11-21 09:00:00
UHWW 210900Z 11002MPS 9999 NSC M03/M11 Q1031 R25L/820255 NOSIG RMK QFE772
METAR:
2019-11-21 08:00:00
TAF UHWW 210800Z 2109/2209 22003MPS 9999 NSC TEMPO 2110/2124 VRB01MPS 0400 FZFG VV002 FM220000 18003MPS 9999 BKN020CB TEMPO 2200/2209 3100 -SHSN